sensor_id;sensor_type;location;lat;lon;timestamp;P1;durP1;ratioP1;P2;durP2;ratioP2
46288;SDS011;63105;46.158;14.604;2023-04-07T00:00:52;10.90;;;5.80;;
46288;SDS011;63105;46.158;14.604;2023-04-07T00:03:17;10.48;;;5.43;;
46288;SDS011;63105;46.158;14.604;2023-04-07T00:05:43;9.43;;;5.63;;
46288;SDS011;63105;46.158;14.604;2023-04-07T00:08:08;9.93;;;5.70;;
46288;SDS011;63105;46.158;14.604;2023-04-07T00:10:33;9.57;;;5.20;;
46288;SDS011;63105;46.158;14.604;2023-04-07T00:12:59;10.20;;;5.43;;
46288;SDS011;63105;46.158;14.604;2023-04-07T00:15:24;9.57;;;5.22;;
46288;SDS011;63105;46.158;14.604;2023-04-07T00:17:50;8.70;;;5.22;;
46288;SDS011;63105;46.158;14.604;2023-04-07T00:20:15;10.70;;;5.10;;
46288;SDS011;63105;46.158;14.604;2023-04-07T00:22:41;10.32;;;5.10;;
46288;SDS011;63105;46.158;14.604;2023-04-07T00:25:06;8.63;;;4.70;;
46288;SDS011;63105;46.158;14.604;2023-04-07T00:27:32;9.85;;;5.25;;
46288;SDS011;63105;46.158;14.604;2023-04-07T00:29:57;8.65;;;4.30;;
46288;SDS011;63105;46.158;14.604;2023-04-07T00:32:22;8.43;;;4.57;;
46288;SDS011;63105;46.158;14.604;2023-04-07T00:34:47;8.38;;;4.53;;
46288;SDS011;63105;46.158;14.604;2023-04-07T00:37:13;9.05;;;4.13;;
46288;SDS011;63105;46.158;14.604;2023-04-07T00:39:38;7.75;;;3.85;;
46288;SDS011;63105;46.158;14.604;2023-04-07T00:42:03;7.00;;;4.20;;
46288;SDS011;63105;46.158;14.604;2023-04-07T00:44:32;8.82;;;3.95;;
46288;SDS011;63105;46.158;14.604;2023-04-07T00:46:57;8.63;;;4.35;;
46288;SDS011;63105;46.158;14.604;2023-04-07T00:49:23;7.63;;;4.20;;
46288;SDS011;63105;46.158;14.604;2023-04-07T00:51:48;7.40;;;4.10;;
46288;SDS011;63105;46.158;14.604;2023-04-07T00:54:13;7.38;;;4.15;;
46288;SDS011;63105;46.158;14.604;2023-04-07T00:56:39;8.60;;;4.28;;
46288;SDS011;63105;46.158;14.604;2023-04-07T00:59:04;7.22;;;4.13;;
46288;SDS011;63105;46.158;14.604;2023-04-07T01:01:31;7.15;;;3.95;;
46288;SDS011;63105;46.158;14.604;2023-04-07T01:04:00;7.60;;;4.10;;
46288;SDS011;63105;46.158;14.604;2023-04-07T01:06:28;7.68;;;3.90;;
46288;SDS011;63105;46.158;14.604;2023-04-07T01:11:24;7.35;;;3.92;;
46288;SDS011;63105;46.158;14.604;2023-04-07T01:13:52;8.10;;;4.20;;
46288;SDS011;63105;46.158;14.604;2023-04-07T01:16:31;7.22;;;3.58;;
46288;SDS011;63105;46.158;14.604;2023-04-07T01:18:57;7.32;;;3.72;;
46288;SDS011;63105;46.158;14.604;2023-04-07T01:21:26;8.75;;;4.30;;
46288;SDS011;63105;46.158;14.604;2023-04-07T01:26:25;7.35;;;3.72;;
46288;SDS011;63105;46.158;14.604;2023-04-07T01:31:20;7.32;;;3.83;;
46288;SDS011;63105;46.158;14.604;2023-04-07T01:33:46;9.82;;;4.82;;
46288;SDS011;63105;46.158;14.604;2023-04-07T01:36:13;8.32;;;4.32;;
46288;SDS011;63105;46.158;14.604;2023-04-07T01:38:39;7.47;;;4.05;;
46288;SDS011;63105;46.158;14.604;2023-04-07T01:41:05;6.63;;;4.00;;
46288;SDS011;63105;46.158;14.604;2023-04-07T01:43:32;7.32;;;4.13;;
46288;SDS011;63105;46.158;14.604;2023-04-07T01:45:57;8.02;;;4.20;;
46288;SDS011;63105;46.158;14.604;2023-04-07T01:48:23;7.32;;;4.10;;
46288;SDS011;63105;46.158;14.604;2023-04-07T01:50:49;8.10;;;4.32;;
46288;SDS011;63105;46.158;14.604;2023-04-07T01:53:15;7.40;;;4.22;;
46288;SDS011;63105;46.158;14.604;2023-04-07T01:55:43;7.68;;;4.10;;
46288;SDS011;63105;46.158;14.604;2023-04-07T01:58:09;7.03;;;4.05;;
46288;SDS011;63105;46.158;14.604;2023-04-07T02:00:34;8.57;;;4.72;;
46288;SDS011;63105;46.158;14.604;2023-04-07T02:03:05;8.50;;;4.68;;
46288;SDS011;63105;46.158;14.604;2023-04-07T02:05:31;8.07;;;4.20;;
46288;SDS011;63105;46.158;14.604;2023-04-07T02:07:58;8.63;;;4.53;;
46288;SDS011;63105;46.158;14.604;2023-04-07T02:10:25;8.15;;;4.47;;
46288;SDS011;63105;46.158;14.604;2023-04-07T02:12:51;8.20;;;4.68;;
46288;SDS011;63105;46.158;14.604;2023-04-07T02:15:16;7.88;;;4.30;;
46288;SDS011;63105;46.158;14.604;2023-04-07T02:17:43;7.75;;;4.35;;
46288;SDS011;63105;46.158;14.604;2023-04-07T02:20:10;8.30;;;4.20;;
46288;SDS011;63105;46.158;14.604;2023-04-07T02:22:37;7.78;;;4.18;;
46288;SDS011;63105;46.158;14.604;2023-04-07T02:25:19;8.23;;;4.60;;
46288;SDS011;63105;46.158;14.604;2023-04-07T02:27:44;8.02;;;4.03;;
46288;SDS011;63105;46.158;14.604;2023-04-07T02:30:09;7.78;;;4.47;;
46288;SDS011;63105;46.158;14.604;2023-04-07T02:32:35;9.27;;;4.72;;
46288;SDS011;63105;46.158;14.604;2023-04-07T02:35:00;8.85;;;4.65;;
46288;SDS011;63105;46.158;14.604;2023-04-07T02:37:25;7.40;;;4.10;;
46288;SDS011;63105;46.158;14.604;2023-04-07T02:39:50;8.23;;;4.30;;
46288;SDS011;63105;46.158;14.604;2023-04-07T02:42:15;7.57;;;4.25;;
46288;SDS011;63105;46.158;14.604;2023-04-07T02:44:41;8.00;;;4.47;;
46288;SDS011;63105;46.158;14.604;2023-04-07T02:47:06;8.25;;;4.50;;
46288;SDS011;63105;46.158;14.604;2023-04-07T02:49:31;8.82;;;4.72;;
46288;SDS011;63105;46.158;14.604;2023-04-07T02:51:56;8.48;;;4.80;;
46288;SDS011;63105;46.158;14.604;2023-04-07T02:54:21;8.27;;;4.00;;
46288;SDS011;63105;46.158;14.604;2023-04-07T02:56:47;7.97;;;4.50;;
46288;SDS011;63105;46.158;14.604;2023-04-07T02:59:12;7.80;;;4.30;;
46288;SDS011;63105;46.158;14.604;2023-04-07T03:01:37;8.70;;;4.80;;
46288;SDS011;63105;46.158;14.604;2023-04-07T03:04:04;7.30;;;4.30;;
46288;SDS011;63105;46.158;14.604;2023-04-07T03:06:30;8.48;;;4.43;;
46288;SDS011;63105;46.158;14.604;2023-04-07T03:08:55;8.27;;;4.60;;
46288;SDS011;63105;46.158;14.604;2023-04-07T03:11:20;7.20;;;4.15;;
46288;SDS011;63105;46.158;14.604;2023-04-07T03:13:46;8.52;;;4.30;;
46288;SDS011;63105;46.158;14.604;2023-04-07T03:16:11;7.78;;;4.38;;
46288;SDS011;63105;46.158;14.604;2023-04-07T03:18:36;7.28;;;4.40;;
46288;SDS011;63105;46.158;14.604;2023-04-07T03:21:01;6.55;;;3.63;;
46288;SDS011;63105;46.158;14.604;2023-04-07T03:23:27;8.20;;;4.60;;
46288;SDS011;63105;46.158;14.604;2023-04-07T03:25:53;7.07;;;4.05;;
46288;SDS011;63105;46.158;14.604;2023-04-07T03:28:18;8.25;;;4.28;;
46288;SDS011;63105;46.158;14.604;2023-04-07T03:30:43;7.70;;;4.40;;
46288;SDS011;63105;46.158;14.604;2023-04-07T03:33:09;8.27;;;4.28;;
46288;SDS011;63105;46.158;14.604;2023-04-07T03:35:34;9.07;;;4.53;;
46288;SDS011;63105;46.158;14.604;2023-04-07T03:37:59;8.90;;;4.38;;
46288;SDS011;63105;46.158;14.604;2023-04-07T03:40:24;7.90;;;4.80;;
46288;SDS011;63105;46.158;14.604;2023-04-07T03:42:50;7.35;;;4.50;;
46288;SDS011;63105;46.158;14.604;2023-04-07T03:45:15;7.70;;;4.50;;
46288;SDS011;63105;46.158;14.604;2023-04-07T03:47:41;8.95;;;4.75;;
46288;SDS011;63105;46.158;14.604;2023-04-07T03:50:06;9.27;;;4.88;;
46288;SDS011;63105;46.158;14.604;2023-04-07T03:52:32;10.57;;;4.72;;
46288;SDS011;63105;46.158;14.604;2023-04-07T03:54:57;9.88;;;4.78;;
46288;SDS011;63105;46.158;14.604;2023-04-07T03:57:22;8.90;;;5.20;;
46288;SDS011;63105;46.158;14.604;2023-04-07T03:59:47;9.32;;;5.25;;
46288;SDS011;63105;46.158;14.604;2023-04-07T04:02:15;9.30;;;4.90;;
46288;SDS011;63105;46.158;14.604;2023-04-07T04:04:40;8.73;;;4.47;;
46288;SDS011;63105;46.158;14.604;2023-04-07T04:07:05;8.10;;;4.35;;
46288;SDS011;63105;46.158;14.604;2023-04-07T04:09:30;7.57;;;4.50;;
46288;SDS011;63105;46.158;14.604;2023-04-07T04:11:56;7.43;;;4.28;;
46288;SDS011;63105;46.158;14.604;2023-04-07T04:14:21;10.15;;;4.70;;
46288;SDS011;63105;46.158;14.604;2023-04-07T04:16:46;8.50;;;4.43;;
46288;SDS011;63105;46.158;14.604;2023-04-07T04:19:12;8.88;;;4.32;;
46288;SDS011;63105;46.158;14.604;2023-04-07T04:21:37;8.73;;;4.80;;
46288;SDS011;63105;46.158;14.604;2023-04-07T04:24:02;8.25;;;4.40;;
46288;SDS011;63105;46.158;14.604;2023-04-07T04:26:28;7.43;;;4.18;;
46288;SDS011;63105;46.158;14.604;2023-04-07T04:28:53;8.02;;;4.30;;
46288;SDS011;63105;46.158;14.604;2023-04-07T04:31:19;8.60;;;4.43;;
46288;SDS011;63105;46.158;14.604;2023-04-07T04:33:44;7.13;;;3.97;;
46288;SDS011;63105;46.158;14.604;2023-04-07T04:36:10;6.55;;;3.90;;
46288;SDS011;63105;46.158;14.604;2023-04-07T04:38:35;7.78;;;4.20;;
46288;SDS011;63105;46.158;14.604;2023-04-07T04:41:01;8.10;;;4.32;;
46288;SDS011;63105;46.158;14.604;2023-04-07T04:43:26;9.07;;;4.32;;
46288;SDS011;63105;46.158;14.604;2023-04-07T04:45:51;8.52;;;4.38;;
46288;SDS011;63105;46.158;14.604;2023-04-07T04:48:16;9.00;;;4.63;;
46288;SDS011;63105;46.158;14.604;2023-04-07T04:50:42;13.18;;;5.82;;
46288;SDS011;63105;46.158;14.604;2023-04-07T04:53:07;14.93;;;6.72;;
46288;SDS011;63105;46.158;14.604;2023-04-07T04:55:34;17.95;;;8.07;;
46288;SDS011;63105;46.158;14.604;2023-04-07T04:57:59;15.10;;;7.38;;
46288;SDS011;63105;46.158;14.604;2023-04-07T05:00:25;19.20;;;8.23;;
46288;SDS011;63105;46.158;14.604;2023-04-07T05:02:50;17.88;;;7.72;;
46288;SDS011;63105;46.158;14.604;2023-04-07T05:05:15;14.80;;;7.57;;
46288;SDS011;63105;46.158;14.604;2023-04-07T05:07:40;13.48;;;7.20;;
46288;SDS011;63105;46.158;14.604;2023-04-07T05:10:06;19.60;;;8.23;;
46288;SDS011;63105;46.158;14.604;2023-04-07T05:12:32;19.98;;;8.40;;
46288;SDS011;63105;46.158;14.604;2023-04-07T05:14:57;18.52;;;9.13;;
46288;SDS011;63105;46.158;14.604;2023-04-07T05:17:22;18.23;;;8.30;;
46288;SDS011;63105;46.158;14.604;2023-04-07T05:19:48;18.27;;;8.48;;
46288;SDS011;63105;46.158;14.604;2023-04-07T05:22:13;15.65;;;8.18;;
46288;SDS011;63105;46.158;14.604;2023-04-07T05:24:38;13.93;;;7.13;;
46288;SDS011;63105;46.158;14.604;2023-04-07T05:27:03;14.50;;;6.57;;
46288;SDS011;63105;46.158;14.604;2023-04-07T05:29:29;15.35;;;7.53;;
46288;SDS011;63105;46.158;14.604;2023-04-07T05:31:54;14.38;;;7.65;;
46288;SDS011;63105;46.158;14.604;2023-04-07T05:34:19;15.32;;;7.40;;
46288;SDS011;63105;46.158;14.604;2023-04-07T05:36:45;14.57;;;7.38;;
46288;SDS011;63105;46.158;14.604;2023-04-07T05:39:10;15.38;;;8.15;;
46288;SDS011;63105;46.158;14.604;2023-04-07T05:41:35;18.38;;;8.20;;
46288;SDS011;63105;46.158;14.604;2023-04-07T05:44:01;15.52;;;8.57;;
46288;SDS011;63105;46.158;14.604;2023-04-07T05:46:26;16.50;;;9.07;;
46288;SDS011;63105;46.158;14.604;2023-04-07T05:48:53;16.60;;;8.10;;
46288;SDS011;63105;46.158;14.604;2023-04-07T05:51:18;14.70;;;8.00;;
46288;SDS011;63105;46.158;14.604;2023-04-07T05:53:43;15.20;;;8.50;;
46288;SDS011;63105;46.158;14.604;2023-04-07T05:56:08;14.13;;;7.85;;
46288;SDS011;63105;46.158;14.604;2023-04-07T05:58:34;15.50;;;8.65;;
46288;SDS011;63105;46.158;14.604;2023-04-07T06:00:59;14.73;;;7.93;;
46288;SDS011;63105;46.158;14.604;2023-04-07T06:03:24;15.88;;;8.43;;
46288;SDS011;63105;46.158;14.604;2023-04-07T06:05:50;15.43;;;8.60;;
46288;SDS011;63105;46.158;14.604;2023-04-07T06:08:15;13.88;;;8.10;;
46288;SDS011;63105;46.158;14.604;2023-04-07T06:10:40;14.45;;;8.27;;
46288;SDS011;63105;46.158;14.604;2023-04-07T06:13:05;17.13;;;8.25;;
46288;SDS011;63105;46.158;14.604;2023-04-07T06:15:31;14.02;;;8.00;;
46288;SDS011;63105;46.158;14.604;2023-04-07T06:17:57;15.88;;;8.55;;
46288;SDS011;63105;46.158;14.604;2023-04-07T06:20:22;14.18;;;8.48;;
46288;SDS011;63105;46.158;14.604;2023-04-07T06:22:48;15.35;;;8.52;;
46288;SDS011;63105;46.158;14.604;2023-04-07T06:25:13;12.48;;;8.00;;
46288;SDS011;63105;46.158;14.604;2023-04-07T06:27:38;14.07;;;8.18;;
46288;SDS011;63105;46.158;14.604;2023-04-07T06:30:04;14.05;;;7.93;;
46288;SDS011;63105;46.158;14.604;2023-04-07T06:32:29;12.75;;;7.38;;
46288;SDS011;63105;46.158;14.604;2023-04-07T06:34:55;12.40;;;7.20;;
46288;SDS011;63105;46.158;14.604;2023-04-07T06:37:21;12.77;;;7.50;;
46288;SDS011;63105;46.158;14.604;2023-04-07T06:39:48;12.30;;;6.65;;
46288;SDS011;63105;46.158;14.604;2023-04-07T06:42:13;12.85;;;7.05;;
46288;SDS011;63105;46.158;14.604;2023-04-07T06:44:39;11.70;;;6.72;;
46288;SDS011;63105;46.158;14.604;2023-04-07T06:47:04;12.50;;;6.97;;
46288;SDS011;63105;46.158;14.604;2023-04-07T06:49:29;12.32;;;6.78;;
46288;SDS011;63105;46.158;14.604;2023-04-07T06:51:55;12.18;;;6.90;;
46288;SDS011;63105;46.158;14.604;2023-04-07T06:54:20;11.73;;;6.90;;
46288;SDS011;63105;46.158;14.604;2023-04-07T06:56:45;11.15;;;6.95;;
46288;SDS011;63105;46.158;14.604;2023-04-07T06:59:10;12.35;;;6.78;;
46288;SDS011;63105;46.158;14.604;2023-04-07T07:01:36;12.13;;;6.97;;
46288;SDS011;63105;46.158;14.604;2023-04-07T07:04:01;12.45;;;7.07;;
46288;SDS011;63105;46.158;14.604;2023-04-07T07:06:27;10.52;;;6.82;;
46288;SDS011;63105;46.158;14.604;2023-04-07T07:08:52;10.90;;;6.78;;
46288;SDS011;63105;46.158;14.604;2023-04-07T07:11:17;10.60;;;6.72;;
46288;SDS011;63105;46.158;14.604;2023-04-07T07:13:43;10.85;;;6.65;;
46288;SDS011;63105;46.158;14.604;2023-04-07T07:16:09;10.77;;;6.70;;
46288;SDS011;63105;46.158;14.604;2023-04-07T07:18:34;13.45;;;7.15;;
46288;SDS011;63105;46.158;14.604;2023-04-07T07:21:00;10.88;;;6.82;;
46288;SDS011;63105;46.158;14.604;2023-04-07T07:23:26;10.32;;;6.68;;
46288;SDS011;63105;46.158;14.604;2023-04-07T07:25:51;12.00;;;6.95;;
46288;SDS011;63105;46.158;14.604;2023-04-07T07:28:16;10.40;;;6.32;;
46288;SDS011;63105;46.158;14.604;2023-04-07T07:30:42;10.07;;;6.50;;
46288;SDS011;63105;46.158;14.604;2023-04-07T07:33:07;10.60;;;6.00;;
46288;SDS011;63105;46.158;14.604;2023-04-07T07:35:32;12.25;;;6.50;;
46288;SDS011;63105;46.158;14.604;2023-04-07T07:37:59;10.75;;;6.90;;
46288;SDS011;63105;46.158;14.604;2023-04-07T07:40:25;11.48;;;7.18;;
46288;SDS011;63105;46.158;14.604;2023-04-07T07:42:50;11.20;;;6.40;;
46288;SDS011;63105;46.158;14.604;2023-04-07T07:45:15;10.35;;;6.68;;
46288;SDS011;63105;46.158;14.604;2023-04-07T07:47:43;11.40;;;6.68;;
46288;SDS011;63105;46.158;14.604;2023-04-07T07:50:09;9.95;;;6.47;;
46288;SDS011;63105;46.158;14.604;2023-04-07T07:52:34;11.10;;;6.65;;
46288;SDS011;63105;46.158;14.604;2023-04-07T07:54:59;9.70;;;6.00;;
46288;SDS011;63105;46.158;14.604;2023-04-07T07:57:24;11.43;;;6.72;;
46288;SDS011;63105;46.158;14.604;2023-04-07T07:59:50;9.90;;;6.07;;
46288;SDS011;63105;46.158;14.604;2023-04-07T08:02:15;10.63;;;6.25;;
46288;SDS011;63105;46.158;14.604;2023-04-07T08:04:40;10.32;;;6.22;;
46288;SDS011;63105;46.158;14.604;2023-04-07T08:07:05;8.65;;;5.90;;
46288;SDS011;63105;46.158;14.604;2023-04-07T08:09:31;9.90;;;5.95;;
46288;SDS011;63105;46.158;14.604;2023-04-07T08:11:56;10.48;;;6.53;;
46288;SDS011;63105;46.158;14.604;2023-04-07T08:14:22;10.40;;;6.10;;
46288;SDS011;63105;46.158;14.604;2023-04-07T08:16:47;10.02;;;6.15;;
46288;SDS011;63105;46.158;14.604;2023-04-07T08:19:13;10.30;;;6.32;;
46288;SDS011;63105;46.158;14.604;2023-04-07T08:21:38;10.20;;;6.22;;
46288;SDS011;63105;46.158;14.604;2023-04-07T08:24:03;10.68;;;6.20;;
46288;SDS011;63105;46.158;14.604;2023-04-07T08:26:28;9.07;;;6.20;;
46288;SDS011;63105;46.158;14.604;2023-04-07T08:28:54;10.63;;;6.05;;
46288;SDS011;63105;46.158;14.604;2023-04-07T08:31:20;9.05;;;5.85;;
46288;SDS011;63105;46.158;14.604;2023-04-07T08:33:45;8.30;;;6.00;;
46288;SDS011;63105;46.158;14.604;2023-04-07T08:36:10;11.35;;;6.40;;
46288;SDS011;63105;46.158;14.604;2023-04-07T08:38:36;10.30;;;6.20;;
46288;SDS011;63105;46.158;14.604;2023-04-07T08:41:09;8.50;;;5.43;;
46288;SDS011;63105;46.158;14.604;2023-04-07T08:43:35;9.35;;;5.68;;
46288;SDS011;63105;46.158;14.604;2023-04-07T08:46:02;8.65;;;5.25;;
46288;SDS011;63105;46.158;14.604;2023-04-07T08:48:29;9.30;;;5.72;;
46288;SDS011;63105;46.158;14.604;2023-04-07T08:50:57;8.13;;;4.85;;
46288;SDS011;63105;46.158;14.604;2023-04-07T08:53:25;8.45;;;5.20;;
46288;SDS011;63105;46.158;14.604;2023-04-07T08:55:56;8.18;;;4.68;;
46288;SDS011;63105;46.158;14.604;2023-04-07T08:58:22;7.78;;;5.32;;
46288;SDS011;63105;46.158;14.604;2023-04-07T09:00:47;7.72;;;4.78;;
46288;SDS011;63105;46.158;14.604;2023-04-07T09:03:13;7.95;;;5.07;;
46288;SDS011;63105;46.158;14.604;2023-04-07T09:05:39;8.40;;;5.13;;
46288;SDS011;63105;46.158;14.604;2023-04-07T09:08:04;7.75;;;4.68;;
46288;SDS011;63105;46.158;14.604;2023-04-07T09:10:30;6.78;;;4.10;;
46288;SDS011;63105;46.158;14.604;2023-04-07T09:12:57;7.20;;;4.72;;
46288;SDS011;63105;46.158;14.604;2023-04-07T09:15:22;6.70;;;4.05;;
46288;SDS011;63105;46.158;14.604;2023-04-07T09:17:47;6.03;;;3.85;;
46288;SDS011;63105;46.158;14.604;2023-04-07T09:20:13;7.07;;;4.30;;
46288;SDS011;63105;46.158;14.604;2023-04-07T09:22:39;6.88;;;4.00;;
46288;SDS011;63105;46.158;14.604;2023-04-07T09:27:52;6.05;;;4.10;;
46288;SDS011;63105;46.158;14.604;2023-04-07T09:30:17;7.47;;;4.50;;
46288;SDS011;63105;46.158;14.604;2023-04-07T09:32:42;7.07;;;4.80;;
46288;SDS011;63105;46.158;14.604;2023-04-07T09:35:08;8.38;;;5.10;;
46288;SDS011;63105;46.158;14.604;2023-04-07T09:37:33;8.10;;;5.38;;
46288;SDS011;63105;46.158;14.604;2023-04-07T09:39:59;7.55;;;5.00;;
46288;SDS011;63105;46.158;14.604;2023-04-07T09:42:25;7.18;;;4.32;;
46288;SDS011;63105;46.158;14.604;2023-04-07T09:44:51;8.63;;;5.45;;
46288;SDS011;63105;46.158;14.604;2023-04-07T09:47:16;8.70;;;5.53;;
46288;SDS011;63105;46.158;14.604;2023-04-07T09:49:49;9.30;;;6.10;;
46288;SDS011;63105;46.158;14.604;2023-04-07T09:52:16;10.53;;;5.40;;
46288;SDS011;63105;46.158;14.604;2023-04-07T09:54:43;8.30;;;5.53;;
46288;SDS011;63105;46.158;14.604;2023-04-07T09:57:10;8.60;;;6.00;;
46288;SDS011;63105;46.158;14.604;2023-04-07T09:59:39;9.63;;;6.22;;
46288;SDS011;63105;46.158;14.604;2023-04-07T10:02:06;9.15;;;6.45;;
46288;SDS011;63105;46.158;14.604;2023-04-07T10:04:32;10.55;;;7.35;;
46288;SDS011;63105;46.158;14.604;2023-04-07T10:06:57;9.88;;;6.45;;
46288;SDS011;63105;46.158;14.604;2023-04-07T10:09:24;9.18;;;6.50;;
46288;SDS011;63105;46.158;14.604;2023-04-07T10:11:50;9.82;;;6.25;;
46288;SDS011;63105;46.158;14.604;2023-04-07T10:14:17;10.50;;;6.60;;
46288;SDS011;63105;46.158;14.604;2023-04-07T10:16:42;8.68;;;6.25;;
46288;SDS011;63105;46.158;14.604;2023-04-07T10:19:08;10.25;;;7.45;;
46288;SDS011;63105;46.158;14.604;2023-04-07T10:21:37;8.88;;;6.25;;
46288;SDS011;63105;46.158;14.604;2023-04-07T10:26:53;9.60;;;5.95;;
46288;SDS011;63105;46.158;14.604;2023-04-07T10:29:18;9.02;;;6.50;;
46288;SDS011;63105;46.158;14.604;2023-04-07T10:31:45;8.63;;;5.85;;
46288;SDS011;63105;46.158;14.604;2023-04-07T10:34:10;8.57;;;5.50;;
46288;SDS011;63105;46.158;14.604;2023-04-07T10:36:35;11.05;;;7.00;;
46288;SDS011;63105;46.158;14.604;2023-04-07T10:39:21;8.57;;;6.03;;
46288;SDS011;63105;46.158;14.604;2023-04-07T10:41:46;9.40;;;5.85;;
46288;SDS011;63105;46.158;14.604;2023-04-07T10:47:17;8.75;;;6.00;;
46288;SDS011;63105;46.158;14.604;2023-04-07T10:50:14;8.00;;;5.20;;
46288;SDS011;63105;46.158;14.604;2023-04-07T10:52:27;6.88;;;5.07;;
46288;SDS011;63105;46.158;14.604;2023-04-07T10:57:36;8.90;;;5.80;;
46288;SDS011;63105;46.158;14.604;2023-04-07T11:02:37;7.88;;;5.38;;
46288;SDS011;63105;46.158;14.604;2023-04-07T11:05:03;6.85;;;4.70;;
46288;SDS011;63105;46.158;14.604;2023-04-07T11:07:42;7.72;;;4.70;;
46288;SDS011;63105;46.158;14.604;2023-04-07T11:10:08;8.43;;;5.95;;
46288;SDS011;63105;46.158;14.604;2023-04-07T11:12:34;7.63;;;5.15;;
46288;SDS011;63105;46.158;14.604;2023-04-07T11:15:14;7.77;;;5.27;;
46288;SDS011;63105;46.158;14.604;2023-04-07T11:17:40;9.18;;;5.78;;
46288;SDS011;63105;46.158;14.604;2023-04-07T11:20:05;8.77;;;5.37;;
46288;SDS011;63105;46.158;14.604;2023-04-07T11:22:31;10.40;;;5.72;;
46288;SDS011;63105;46.158;14.604;2023-04-07T11:24:58;9.73;;;5.82;;
46288;SDS011;63105;46.158;14.604;2023-04-07T11:27:23;8.20;;;5.70;;
46288;SDS011;63105;46.158;14.604;2023-04-07T11:29:48;8.43;;;5.40;;
46288;SDS011;63105;46.158;14.604;2023-04-07T11:32:14;7.47;;;4.88;;
46288;SDS011;63105;46.158;14.604;2023-04-07T11:34:39;8.27;;;5.50;;
46288;SDS011;63105;46.158;14.604;2023-04-07T11:37:24;7.75;;;4.95;;
46288;SDS011;63105;46.158;14.604;2023-04-07T11:39:54;10.00;;;6.10;;
46288;SDS011;63105;46.158;14.604;2023-04-07T11:42:35;6.80;;;4.55;;
46288;SDS011;63105;46.158;14.604;2023-04-07T11:45:01;8.70;;;5.28;;
46288;SDS011;63105;46.158;14.604;2023-04-07T11:47:33;7.10;;;4.63;;
46288;SDS011;63105;46.158;14.604;2023-04-07T11:49:59;7.38;;;4.35;;
46288;SDS011;63105;46.158;14.604;2023-04-07T11:52:25;7.20;;;4.50;;
46288;SDS011;63105;46.158;14.604;2023-04-07T11:54:51;7.78;;;4.35;;
46288;SDS011;63105;46.158;14.604;2023-04-07T11:57:26;7.07;;;4.50;;
46288;SDS011;63105;46.158;14.604;2023-04-07T12:00:04;5.72;;;3.50;;
46288;SDS011;63105;46.158;14.604;2023-04-07T12:02:30;9.73;;;5.00;;
46288;SDS011;63105;46.158;14.604;2023-04-07T12:04:56;6.15;;;3.53;;
46288;SDS011;63105;46.158;14.604;2023-04-07T12:07:21;6.82;;;4.15;;
46288;SDS011;63105;46.158;14.604;2023-04-07T12:09:47;9.02;;;5.32;;
46288;SDS011;63105;46.158;14.604;2023-04-07T12:12:12;7.22;;;4.50;;
46288;SDS011;63105;46.158;14.604;2023-04-07T12:14:38;8.50;;;4.70;;
46288;SDS011;63105;46.158;14.604;2023-04-07T12:17:03;7.05;;;4.70;;
46288;SDS011;63105;46.158;14.604;2023-04-07T12:19:28;8.00;;;5.40;;
46288;SDS011;63105;46.158;14.604;2023-04-07T12:21:55;6.18;;;3.90;;
46288;SDS011;63105;46.158;14.604;2023-04-07T12:24:20;7.53;;;5.30;;
46288;SDS011;63105;46.158;14.604;2023-04-07T12:26:46;7.10;;;4.65;;
46288;SDS011;63105;46.158;14.604;2023-04-07T12:29:12;9.68;;;6.18;;
46288;SDS011;63105;46.158;14.604;2023-04-07T12:31:37;10.32;;;5.80;;
46288;SDS011;63105;46.158;14.604;2023-04-07T12:34:02;9.18;;;6.43;;
46288;SDS011;63105;46.158;14.604;2023-04-07T12:36:27;8.98;;;6.30;;
46288;SDS011;63105;46.158;14.604;2023-04-07T12:38:54;9.07;;;6.15;;
46288;SDS011;63105;46.158;14.604;2023-04-07T12:41:19;9.55;;;6.22;;
46288;SDS011;63105;46.158;14.604;2023-04-07T12:43:44;15.90;;;6.63;;
46288;SDS011;63105;46.158;14.604;2023-04-07T12:46:10;8.43;;;5.13;;
46288;SDS011;63105;46.158;14.604;2023-04-07T12:48:35;7.35;;;4.18;;
46288;SDS011;63105;46.158;14.604;2023-04-07T12:51:00;6.22;;;3.72;;
46288;SDS011;63105;46.158;14.604;2023-04-07T12:53:26;6.35;;;3.22;;
46288;SDS011;63105;46.158;14.604;2023-04-07T12:55:51;7.70;;;4.40;;
46288;SDS011;63105;46.158;14.604;2023-04-07T12:58:16;7.63;;;4.00;;
46288;SDS011;63105;46.158;14.604;2023-04-07T13:00:43;6.88;;;4.03;;
46288;SDS011;63105;46.158;14.604;2023-04-07T13:03:08;7.32;;;3.95;;
46288;SDS011;63105;46.158;14.604;2023-04-07T13:05:33;5.95;;;3.60;;
46288;SDS011;63105;46.158;14.604;2023-04-07T13:07:59;6.25;;;3.50;;
46288;SDS011;63105;46.158;14.604;2023-04-07T13:10:25;6.57;;;3.55;;
46288;SDS011;63105;46.158;14.604;2023-04-07T13:12:50;6.95;;;4.05;;
46288;SDS011;63105;46.158;14.604;2023-04-07T13:15:15;8.52;;;4.65;;
46288;SDS011;63105;46.158;14.604;2023-04-07T13:17:40;7.00;;;4.07;;
46288;SDS011;63105;46.158;14.604;2023-04-07T13:20:06;6.65;;;4.20;;
46288;SDS011;63105;46.158;14.604;2023-04-07T13:22:31;6.55;;;4.05;;
46288;SDS011;63105;46.158;14.604;2023-04-07T13:24:57;6.63;;;3.80;;
46288;SDS011;63105;46.158;14.604;2023-04-07T13:27:22;7.22;;;4.00;;
46288;SDS011;63105;46.158;14.604;2023-04-07T13:29:47;6.45;;;3.70;;
46288;SDS011;63105;46.158;14.604;2023-04-07T13:32:13;6.78;;;3.97;;
46288;SDS011;63105;46.158;14.604;2023-04-07T13:34:39;6.00;;;3.83;;
46288;SDS011;63105;46.158;14.604;2023-04-07T13:37:04;5.90;;;3.30;;
46288;SDS011;63105;46.158;14.604;2023-04-07T13:39:30;6.75;;;3.75;;
46288;SDS011;63105;46.158;14.604;2023-04-07T13:41:56;9.07;;;3.90;;
46288;SDS011;63105;46.158;14.604;2023-04-07T13:44:22;5.93;;;3.55;;
46288;SDS011;63105;46.158;14.604;2023-04-07T13:46:47;6.95;;;3.50;;
46288;SDS011;63105;46.158;14.604;2023-04-07T13:49:13;6.33;;;3.40;;
46288;SDS011;63105;46.158;14.604;2023-04-07T13:51:39;5.70;;;3.58;;
46288;SDS011;63105;46.158;14.604;2023-04-07T13:54:04;5.40;;;3.42;;
46288;SDS011;63105;46.158;14.604;2023-04-07T13:56:30;4.85;;;3.08;;
46288;SDS011;63105;46.158;14.604;2023-04-07T13:58:55;5.50;;;3.17;;
46288;SDS011;63105;46.158;14.604;2023-04-07T14:01:20;4.13;;;2.43;;
46288;SDS011;63105;46.158;14.604;2023-04-07T14:03:46;5.47;;;2.78;;
46288;SDS011;63105;46.158;14.604;2023-04-07T14:06:11;5.47;;;2.88;;
46288;SDS011;63105;46.158;14.604;2023-04-07T14:08:36;4.40;;;2.72;;
46288;SDS011;63105;46.158;14.604;2023-04-07T14:11:02;5.82;;;3.58;;
46288;SDS011;63105;46.158;14.604;2023-04-07T14:13:27;5.63;;;3.40;;
46288;SDS011;63105;46.158;14.604;2023-04-07T14:15:52;4.88;;;2.90;;
46288;SDS011;63105;46.158;14.604;2023-04-07T14:18:17;7.55;;;3.78;;
46288;SDS011;63105;46.158;14.604;2023-04-07T14:20:43;7.25;;;4.32;;
46288;SDS011;63105;46.158;14.604;2023-04-07T14:23:08;7.55;;;4.80;;
46288;SDS011;63105;46.158;14.604;2023-04-07T14:25:33;7.72;;;4.60;;
46288;SDS011;63105;46.158;14.604;2023-04-07T14:27:59;10.13;;;4.75;;
46288;SDS011;63105;46.158;14.604;2023-04-07T14:30:24;5.90;;;3.55;;
46288;SDS011;63105;46.158;14.604;2023-04-07T14:32:49;7.20;;;4.25;;
46288;SDS011;63105;46.158;14.604;2023-04-07T14:35:15;8.88;;;3.25;;
46288;SDS011;63105;46.158;14.604;2023-04-07T14:37:40;9.95;;;3.85;;
46288;SDS011;63105;46.158;14.604;2023-04-07T14:40:05;7.57;;;3.30;;
46288;SDS011;63105;46.158;14.604;2023-04-07T14:42:31;5.35;;;3.05;;
46288;SDS011;63105;46.158;14.604;2023-04-07T14:44:58;7.72;;;3.78;;